sensor_id;sensor_type;location;lat;lon;timestamp;temperature;humidity
43991;DHT22;29654;50.784;20.604;2023-11-19T00:02:40;9.00;58.10
43991;DHT22;29654;50.784;20.604;2023-11-19T00:07:45;9.10;58.10
43991;DHT22;29654;50.784;20.604;2023-11-19T00:12:48;9.10;58.00
43991;DHT22;29654;50.784;20.604;2023-11-19T00:17:51;9.10;58.00
43991;DHT22;29654;50.784;20.604;2023-11-19T00:22:55;9.10;57.90
43991;DHT22;29654;50.784;20.604;2023-11-19T00:27:58;9.10;57.90
43991;DHT22;29654;50.784;20.604;2023-11-19T00:33:01;9.10;57.90
43991;DHT22;29654;50.784;20.604;2023-11-19T00:38:05;9.10;57.90
43991;DHT22;29654;50.784;20.604;2023-11-19T00:43:08;9.10;57.90
43991;DHT22;29654;50.784;20.604;2023-11-19T00:48:11;9.10;57.90
43991;DHT22;29654;50.784;20.604;2023-11-19T00:53:17;9.00;57.70
43991;DHT22;29654;50.784;20.604;2023-11-19T00:58:19;9.00;57.90
43991;DHT22;29654;50.784;20.604;2023-11-19T01:03:22;9.00;57.90
43991;DHT22;29654;50.784;20.604;2023-11-19T01:08:26;9.00;57.90
43991;DHT22;29654;50.784;20.604;2023-11-19T01:13:29;9.00;58.60
43991;DHT22;29654;50.784;20.604;2023-11-19T01:18:32;9.00;58.00
43991;DHT22;29654;50.784;20.604;2023-11-19T01:23:36;9.00;58.00
43991;DHT22;29654;50.784;20.604;2023-11-19T01:28:39;9.00;58.00
43991;DHT22;29654;50.784;20.604;2023-11-19T01:33:45;9.00;58.00
43991;DHT22;29654;50.784;20.604;2023-11-19T01:38:50;9.00;58.00
43991;DHT22;29654;50.784;20.604;2023-11-19T01:43:52;9.00;58.10
43991;DHT22;29654;50.784;20.604;2023-11-19T01:48:56;9.00;58.00
43991;DHT22;29654;50.784;20.604;2023-11-19T01:54:00;9.00;58.00
43991;DHT22;29654;50.784;20.604;2023-11-19T01:59:04;9.00;58.00
43991;DHT22;29654;50.784;20.604;2023-11-19T02:04:07;9.00;58.10
43991;DHT22;29654;50.784;20.604;2023-11-19T02:09:11;9.00;58.00
43991;DHT22;29654;50.784;20.604;2023-11-19T02:14:14;9.00;58.00
43991;DHT22;29654;50.784;20.604;2023-11-19T02:19:19;9.00;58.00
43991;DHT22;29654;50.784;20.604;2023-11-19T02:24:25;9.00;58.00
43991;DHT22;29654;50.784;20.604;2023-11-19T02:29:31;9.00;58.00
43991;DHT22;29654;50.784;20.604;2023-11-19T02:34:36;8.90;58.00
43991;DHT22;29654;50.784;20.604;2023-11-19T02:39:38;8.90;58.00
43991;DHT22;29654;50.784;20.604;2023-11-19T02:44:45;8.90;57.90
43991;DHT22;29654;50.784;20.604;2023-11-19T02:49:49;8.90;57.90
43991;DHT22;29654;50.784;20.604;2023-11-19T02:54:54;9.00;58.00
43991;DHT22;29654;50.784;20.604;2023-11-19T02:59:58;8.90;58.60
43991;DHT22;29654;50.784;20.604;2023-11-19T03:05:00;8.90;58.00
43991;DHT22;29654;50.784;20.604;2023-11-19T03:10:07;8.90;58.10
43991;DHT22;29654;50.784;20.604;2023-11-19T03:15:15;8.90;58.10
43991;DHT22;29654;50.784;20.604;2023-11-19T03:20:17;8.90;58.00
43991;DHT22;29654;50.784;20.604;2023-11-19T03:25:21;8.90;58.10
43991;DHT22;29654;50.784;20.604;2023-11-19T03:30:26;8.90;58.00
43991;DHT22;29654;50.784;20.604;2023-11-19T03:35:29;8.90;57.90
43991;DHT22;29654;50.784;20.604;2023-11-19T03:40:33;8.90;57.90
43991;DHT22;29654;50.784;20.604;2023-11-19T03:45:38;9.00;57.90
43991;DHT22;29654;50.784;20.604;2023-11-19T03:50:42;8.90;57.80
43991;DHT22;29654;50.784;20.604;2023-11-19T03:55:45;8.90;57.80
43991;DHT22;29654;50.784;20.604;2023-11-19T04:00:49;8.90;57.80
43991;DHT22;29654;50.784;20.604;2023-11-19T04:05:52;8.90;57.80
43991;DHT22;29654;50.784;20.604;2023-11-19T04:10:54;8.90;57.90
43991;DHT22;29654;50.784;20.604;2023-11-19T04:15:58;8.80;57.90
43991;DHT22;29654;50.784;20.604;2023-11-19T04:21:01;8.80;57.80
43991;DHT22;29654;50.784;20.604;2023-11-19T04:26:04;8.80;57.80
43991;DHT22;29654;50.784;20.604;2023-11-19T04:31:09;8.70;58.00
43991;DHT22;29654;50.784;20.604;2023-11-19T04:36:11;8.70;57.90
43991;DHT22;29654;50.784;20.604;2023-11-19T04:41:15;8.70;58.00
43991;DHT22;29654;50.784;20.604;2023-11-19T04:46:19;8.70;58.10
43991;DHT22;29654;50.784;20.604;2023-11-19T04:51:21;8.70;58.10
43991;DHT22;29654;50.784;20.604;2023-11-19T04:56:24;8.70;58.10
43991;DHT22;29654;50.784;20.604;2023-11-19T05:01:28;8.70;58.00
43991;DHT22;29654;50.784;20.604;2023-11-19T05:06:31;8.70;57.80
43991;DHT22;29654;50.784;20.604;2023-11-19T05:11:35;8.70;57.70
43991;DHT22;29654;50.784;20.604;2023-11-19T05:16:41;8.70;57.70
43991;DHT22;29654;50.784;20.604;2023-11-19T05:21:43;8.70;57.60
43991;DHT22;29654;50.784;20.604;2023-11-19T05:26:46;8.70;57.60
43991;DHT22;29654;50.784;20.604;2023-11-19T05:31:50;8.70;57.50
43991;DHT22;29654;50.784;20.604;2023-11-19T05:36:53;8.70;57.60
43991;DHT22;29654;50.784;20.604;2023-11-19T05:41:55;8.70;57.50
43991;DHT22;29654;50.784;20.604;2023-11-19T05:46:59;8.70;57.50
43991;DHT22;29654;50.784;20.604;2023-11-19T05:52:02;8.70;57.60
43991;DHT22;29654;50.784;20.604;2023-11-19T05:57:08;8.70;57.70
43991;DHT22;29654;50.784;20.604;2023-11-19T06:02:12;8.70;57.60
43991;DHT22;29654;50.784;20.604;2023-11-19T06:07:15;8.70;58.20
43991;DHT22;29654;50.784;20.604;2023-11-19T06:12:17;8.70;57.70
43991;DHT22;29654;50.784;20.604;2023-11-19T06:17:21;8.70;57.60
43991;DHT22;29654;50.784;20.604;2023-11-19T06:22:24;8.70;57.70
43991;DHT22;29654;50.784;20.604;2023-11-19T06:27:27;8.70;57.70
43991;DHT22;29654;50.784;20.604;2023-11-19T06:32:31;8.80;57.70
43991;DHT22;29654;50.784;20.604;2023-11-19T06:37:34;8.80;57.50
43991;DHT22;29654;50.784;20.604;2023-11-19T06:42:36;8.80;57.50
43991;DHT22;29654;50.784;20.604;2023-11-19T06:47:40;8.80;57.50
43991;DHT22;29654;50.784;20.604;2023-11-19T06:52:43;8.90;57.60
43991;DHT22;29654;50.784;20.604;2023-11-19T06:57:45;8.90;57.60
43991;DHT22;29654;50.784;20.604;2023-11-19T07:02:49;8.80;57.60
43991;DHT22;29654;50.784;20.604;2023-11-19T07:07:52;8.90;57.50
43991;DHT22;29654;50.784;20.604;2023-11-19T07:12:56;9.00;57.50
43991;DHT22;29654;50.784;20.604;2023-11-19T07:18:01;8.90;57.50
43991;DHT22;29654;50.784;20.604;2023-11-19T07:23:05;9.00;57.50
43991;DHT22;29654;50.784;20.604;2023-11-19T07:28:07;9.00;57.50
43991;DHT22;29654;50.784;20.604;2023-11-19T07:33:12;8.90;57.50
43991;DHT22;29654;50.784;20.604;2023-11-19T07:38:14;9.00;57.70
43991;DHT22;29654;50.784;20.604;2023-11-19T07:43:17;9.00;57.60
43991;DHT22;29654;50.784;20.604;2023-11-19T07:48:22;9.00;57.50
43991;DHT22;29654;50.784;20.604;2023-11-19T07:53:26;8.90;57.30
43991;DHT22;29654;50.784;20.604;2023-11-19T07:58:30;8.90;57.50
43991;DHT22;29654;50.784;20.604;2023-11-19T08:03:35;8.80;57.70
43991;DHT22;29654;50.784;20.604;2023-11-19T08:08:37;8.80;57.80
43991;DHT22;29654;50.784;20.604;2023-11-19T08:13:40;8.90;58.00
43991;DHT22;29654;50.784;20.604;2023-11-19T08:18:44;8.90;57.90
43991;DHT22;29654;50.784;20.604;2023-11-19T08:23:47;9.00;57.90
43991;DHT22;29654;50.784;20.604;2023-11-19T08:28:49;9.00;58.00
43991;DHT22;29654;50.784;20.604;2023-11-19T08:33:55;9.10;58.00
43991;DHT22;29654;50.784;20.604;2023-11-19T08:38:58;9.10;58.00
43991;DHT22;29654;50.784;20.604;2023-11-19T08:44:00;9.20;58.10
43991;DHT22;29654;50.784;20.604;2023-11-19T08:49:04;9.30;58.10
43991;DHT22;29654;50.784;20.604;2023-11-19T08:54:09;9.40;57.90
43991;DHT22;29654;50.784;20.604;2023-11-19T08:59:11;9.40;57.90
43991;DHT22;29654;50.784;20.604;2023-11-19T09:04:17;9.50;58.00
43991;DHT22;29654;50.784;20.604;2023-11-19T09:09:23;9.60;57.90
43991;DHT22;29654;50.784;20.604;2023-11-19T09:14:26;9.70;57.80
43991;DHT22;29654;50.784;20.604;2023-11-19T09:19:32;9.70;57.70
43991;DHT22;29654;50.784;20.604;2023-11-19T09:24:36;9.80;57.40
43991;DHT22;29654;50.784;20.604;2023-11-19T09:29:39;9.80;57.40
43991;DHT22;29654;50.784;20.604;2023-11-19T09:34:43;9.90;57.50
43991;DHT22;29654;50.784;20.604;2023-11-19T09:39:47;9.90;57.20
43991;DHT22;29654;50.784;20.604;2023-11-19T09:44:50;9.90;57.10
43991;DHT22;29654;50.784;20.604;2023-11-19T09:49:54;9.90;57.20
43991;DHT22;29654;50.784;20.604;2023-11-19T09:54:57;10.00;57.10
43991;DHT22;29654;50.784;20.604;2023-11-19T10:00:00;10.00;57.20
43991;DHT22;29654;50.784;20.604;2023-11-19T10:05:07;10.10;57.10
43991;DHT22;29654;50.784;20.604;2023-11-19T10:10:11;10.10;57.00
43991;DHT22;29654;50.784;20.604;2023-11-19T10:15:21;10.10;57.20
43991;DHT22;29654;50.784;20.604;2023-11-19T10:20:26;10.10;57.10
43991;DHT22;29654;50.784;20.604;2023-11-19T10:25:29;10.20;57.00
43991;DHT22;29654;50.784;20.604;2023-11-19T10:30:32;10.20;56.80
43991;DHT22;29654;50.784;20.604;2023-11-19T10:35:51;10.20;56.70
43991;DHT22;29654;50.784;20.604;2023-11-19T10:40:54;10.30;56.80
43991;DHT22;29654;50.784;20.604;2023-11-19T10:46:09;10.30;57.00
43991;DHT22;29654;50.784;20.604;2023-11-19T10:51:18;10.40;56.70
43991;DHT22;29654;50.784;20.604;2023-11-19T10:56:25;10.50;56.90
43991;DHT22;29654;50.784;20.604;2023-11-19T11:01:37;10.60;57.00
43991;DHT22;29654;50.784;20.604;2023-11-19T11:06:46;10.70;56.40
43991;DHT22;29654;50.784;20.604;2023-11-19T11:11:50;10.70;56.20
43991;DHT22;29654;50.784;20.604;2023-11-19T11:16:54;10.80;56.30
43991;DHT22;29654;50.784;20.604;2023-11-19T11:22:01;10.70;56.30
43991;DHT22;29654;50.784;20.604;2023-11-19T11:33:11;10.90;55.60
43991;DHT22;29654;50.784;20.604;2023-11-19T11:38:37;10.90;56.00
43991;DHT22;29654;50.784;20.604;2023-11-19T11:43:50;10.90;55.70
43991;DHT22;29654;50.784;20.604;2023-11-19T11:48:54;10.80;55.30
43991;DHT22;29654;50.784;20.604;2023-11-19T11:54:00;10.70;55.80
43991;DHT22;29654;50.784;20.604;2023-11-19T11:59:05;10.70;55.70
43991;DHT22;29654;50.784;20.604;2023-11-19T12:04:10;10.70;55.90
43991;DHT22;29654;50.784;20.604;2023-11-19T12:09:14;10.70;55.90
43991;DHT22;29654;50.784;20.604;2023-11-19T12:14:16;10.60;55.70
43991;DHT22;29654;50.784;20.604;2023-11-19T12:19:19;10.60;55.90
43991;DHT22;29654;50.784;20.604;2023-11-19T12:24:23;10.60;55.90
43991;DHT22;29654;50.784;20.604;2023-11-19T12:29:26;10.60;55.80
43991;DHT22;29654;50.784;20.604;2023-11-19T12:34:29;10.60;55.80
43991;DHT22;29654;50.784;20.604;2023-11-19T12:39:33;10.60;55.80
43991;DHT22;29654;50.784;20.604;2023-11-19T12:44:35;10.60;55.90
43991;DHT22;29654;50.784;20.604;2023-11-19T12:49:38;10.50;56.00
43991;DHT22;29654;50.784;20.604;2023-11-19T12:54:42;10.50;56.00
43991;DHT22;29654;50.784;20.604;2023-11-19T12:59:54;10.50;55.90
43991;DHT22;29654;50.784;20.604;2023-11-19T13:04:57;10.40;55.90
43991;DHT22;29654;50.784;20.604;2023-11-19T13:10:03;10.30;55.80
43991;DHT22;29654;50.784;20.604;2023-11-19T13:15:22;10.10;55.80
43991;DHT22;29654;50.784;20.604;2023-11-19T13:20:26;9.80;55.90
43991;DHT22;29654;50.784;20.604;2023-11-19T13:25:31;9.60;56.20
43991;DHT22;29654;50.784;20.604;2023-11-19T13:30:34;9.40;56.50
43991;DHT22;29654;50.784;20.604;2023-11-19T13:35:36;9.20;56.80
43991;DHT22;29654;50.784;20.604;2023-11-19T13:40:42;9.10;56.80
43991;DHT22;29654;50.784;20.604;2023-11-19T13:45:44;9.00;57.10
43991;DHT22;29654;50.784;20.604;2023-11-19T13:50:47;8.90;57.20
43991;DHT22;29654;50.784;20.604;2023-11-19T13:55:52;8.70;57.30
43991;DHT22;29654;50.784;20.604;2023-11-19T14:00:54;8.60;57.60
43991;DHT22;29654;50.784;20.604;2023-11-19T14:05:58;8.50;57.70
43991;DHT22;29654;50.784;20.604;2023-11-19T14:11:03;8.50;57.90
43991;DHT22;29654;50.784;20.604;2023-11-19T14:16:07;8.40;58.10
43991;DHT22;29654;50.784;20.604;2023-11-19T14:21:10;8.40;58.10
43991;DHT22;29654;50.784;20.604;2023-11-19T14:26:14;8.40;58.00
43991;DHT22;29654;50.784;20.604;2023-11-19T14:31:17;8.30;58.20
43991;DHT22;29654;50.784;20.604;2023-11-19T14:36:20;8.30;58.20
43991;DHT22;29654;50.784;20.604;2023-11-19T14:41:25;8.20;58.30
43991;DHT22;29654;50.784;20.604;2023-11-19T14:46:27;8.30;58.40
43991;DHT22;29654;50.784;20.604;2023-11-19T14:51:30;8.20;58.30
43991;DHT22;29654;50.784;20.604;2023-11-19T14:56:35;8.20;58.50
43991;DHT22;29654;50.784;20.604;2023-11-19T15:01:39;8.20;58.50
43991;DHT22;29654;50.784;20.604;2023-11-19T15:06:42;8.20;58.70
43991;DHT22;29654;50.784;20.604;2023-11-19T15:11:47;8.20;58.80
43991;DHT22;29654;50.784;20.604;2023-11-19T15:16:49;8.10;58.70
43991;DHT22;29654;50.784;20.604;2023-11-19T15:21:52;8.10;58.80
43991;DHT22;29654;50.784;20.604;2023-11-19T15:26:57;8.10;58.90
43991;DHT22;29654;50.784;20.604;2023-11-19T15:31:59;8.10;58.90
43991;DHT22;29654;50.784;20.604;2023-11-19T15:37:04;8.10;58.90
43991;DHT22;29654;50.784;20.604;2023-11-19T15:42:08;8.00;59.00
43991;DHT22;29654;50.784;20.604;2023-11-19T15:47:13;8.10;59.10
43991;DHT22;29654;50.784;20.604;2023-11-19T15:52:16;8.10;59.10
43991;DHT22;29654;50.784;20.604;2023-11-19T15:57:20;8.10;59.20
43991;DHT22;29654;50.784;20.604;2023-11-19T16:02:23;8.20;59.20
43991;DHT22;29654;50.784;20.604;2023-11-19T16:07:27;8.20;59.10
43991;DHT22;29654;50.784;20.604;2023-11-19T16:12:32;8.20;59.30
43991;DHT22;29654;50.784;20.604;2023-11-19T16:17:34;8.20;59.10
43991;DHT22;29654;50.784;20.604;2023-11-19T16:22:39;8.30;59.10
43991;DHT22;29654;50.784;20.604;2023-11-19T16:27:45;8.30;59.00
43991;DHT22;29654;50.784;20.604;2023-11-19T16:32:52;8.30;59.10
43991;DHT22;29654;50.784;20.604;2023-11-19T16:37:55;8.30;59.20
43991;DHT22;29654;50.784;20.604;2023-11-19T16:42:59;8.40;59.10
43991;DHT22;29654;50.784;20.604;2023-11-19T16:48:02;8.40;58.90
43991;DHT22;29654;50.784;20.604;2023-11-19T16:53:05;8.30;59.00
43991;DHT22;29654;50.784;20.604;2023-11-19T16:58:09;8.30;59.10
43991;DHT22;29654;50.784;20.604;2023-11-19T17:03:12;8.40;59.10
43991;DHT22;29654;50.784;20.604;2023-11-19T17:08:14;8.40;59.10
43991;DHT22;29654;50.784;20.604;2023-11-19T17:13:18;8.40;59.10
43991;DHT22;29654;50.784;20.604;2023-11-19T17:18:22;8.50;59.10
43991;DHT22;29654;50.784;20.604;2023-11-19T17:23:25;8.50;58.90
43991;DHT22;29654;50.784;20.604;2023-11-19T17:28:29;8.40;58.90
43991;DHT22;29654;50.784;20.604;2023-11-19T17:33:32;8.40;59.10
43991;DHT22;29654;50.784;20.604;2023-11-19T17:38:34;8.40;59.20
43991;DHT22;29654;50.784;20.604;2023-11-19T17:43:38;8.40;59.20
43991;DHT22;29654;50.784;20.604;2023-11-19T17:48:41;8.40;59.30
43991;DHT22;29654;50.784;20.604;2023-11-19T17:53:43;8.40;59.30
43991;DHT22;29654;50.784;20.604;2023-11-19T17:58:47;8.50;59.30
43991;DHT22;29654;50.784;20.604;2023-11-19T18:03:50;8.50;59.20
43991;DHT22;29654;50.784;20.604;2023-11-19T18:08:52;8.60;59.20
43991;DHT22;29654;50.784;20.604;2023-11-19T18:13:57;9.30;59.70
43991;DHT22;29654;50.784;20.604;2023-11-19T18:18:59;9.00;59.60
43991;DHT22;29654;50.784;20.604;2023-11-19T18:24:02;9.00;59.60
43991;DHT22;29654;50.784;20.604;2023-11-19T18:29:06;9.10;59.40
43991;DHT22;29654;50.784;20.604;2023-11-19T18:34:09;9.10;59.20
43991;DHT22;29654;50.784;20.604;2023-11-19T18:39:12;9.10;59.00
43991;DHT22;29654;50.784;20.604;2023-11-19T18:44:16;9.00;58.90
43991;DHT22;29654;50.784;20.604;2023-11-19T18:49:19;9.00;58.90
43991;DHT22;29654;50.784;20.604;2023-11-19T18:54:21;9.00;59.00
43991;DHT22;29654;50.784;20.604;2023-11-19T18:59:25;8.90;58.90
43991;DHT22;29654;50.784;20.604;2023-11-19T19:04:28;9.00;59.00
43991;DHT22;29654;50.784;20.604;2023-11-19T19:09:30;9.00;58.90
43991;DHT22;29654;50.784;20.604;2023-11-19T19:14:34;9.00;58.90
43991;DHT22;29654;50.784;20.604;2023-11-19T19:19:37;8.90;58.90
43991;DHT22;29654;50.784;20.604;2023-11-19T19:24:40;8.90;59.00
43991;DHT22;29654;50.784;20.604;2023-11-19T19:29:44;8.90;59.10
43991;DHT22;29654;50.784;20.604;2023-11-19T19:34:46;9.00;59.10
43991;DHT22;29654;50.784;20.604;2023-11-19T19:39:49;9.00;59.00
43991;DHT22;29654;50.784;20.604;2023-11-19T19:44:53;8.90;58.90
43991;DHT22;29654;50.784;20.604;2023-11-19T19:49:56;8.90;59.00
43991;DHT22;29654;50.784;20.604;2023-11-19T19:54:59;8.90;59.00
43991;DHT22;29654;50.784;20.604;2023-11-19T20:00:04;8.90;59.00
43991;DHT22;29654;50.784;20.604;2023-11-19T20:05:11;8.90;59.20
43991;DHT22;29654;50.784;20.604;2023-11-19T20:10:14;8.90;59.30
43991;DHT22;29654;50.784;20.604;2023-11-19T20:15:18;8.90;59.10
43991;DHT22;29654;50.784;20.604;2023-11-19T20:20:24;8.90;59.20
43991;DHT22;29654;50.784;20.604;2023-11-19T20:25:29;8.90;59.20
43991;DHT22;29654;50.784;20.604;2023-11-19T20:30:33;9.00;59.30
43991;DHT22;29654;50.784;20.604;2023-11-19T20:35:35;9.00;59.20
43991;DHT22;29654;50.784;20.604;2023-11-19T20:40:39;9.10;59.20
43991;DHT22;29654;50.784;20.604;2023-11-19T20:45:46;9.10;59.20
43991;DHT22;29654;50.784;20.604;2023-11-19T20:50:51;9.10;59.30
43991;DHT22;29654;50.784;20.604;2023-11-19T20:55:55;9.10;59.30
43991;DHT22;29654;50.784;20.604;2023-11-19T21:00:59;9.10;59.20
43991;DHT22;29654;50.784;20.604;2023-11-19T21:06:04;9.10;59.20
43991;DHT22;29654;50.784;20.604;2023-11-19T21:11:08;9.20;59.20
43991;DHT22;29654;50.784;20.604;2023-11-19T21:16:13;9.20;59.20
43991;DHT22;29654;50.784;20.604;2023-11-19T21:21:16;9.20;59.30
43991;DHT22;29654;50.784;20.604;2023-11-19T21:26:20;9.20;59.30
43991;DHT22;29654;50.784;20.604;2023-11-19T21:31:24;9.20;59.30
43991;DHT22;29654;50.784;20.604;2023-11-19T21:36:27;9.30;59.30
43991;DHT22;29654;50.784;20.604;2023-11-19T21:41:29;9.30;59.30
43991;DHT22;29654;50.784;20.604;2023-11-19T21:46:33;9.40;59.30
43991;DHT22;29654;50.784;20.604;2023-11-19T21:51:39;9.40;59.30
43991;DHT22;29654;50.784;20.604;2023-11-19T21:56:42;9.50;59.20
43991;DHT22;29654;50.784;20.604;2023-11-19T22:01:46;9.50;59.20
43991;DHT22;29654;50.784;20.604;2023-11-19T22:06:52;9.50;59.10
43991;DHT22;29654;50.784;20.604;2023-11-19T22:11:54;9.60;59.00
43991;DHT22;29654;50.784;20.604;2023-11-19T22:16:58;9.60;59.00
43991;DHT22;29654;50.784;20.604;2023-11-19T22:22:02;9.60;59.00
43991;DHT22;29654;50.784;20.604;2023-11-19T22:27:05;9.60;59.00
43991;DHT22;29654;50.784;20.604;2023-11-19T22:32:10;9.70;59.00
43991;DHT22;29654;50.784;20.604;2023-11-19T22:37:13;9.70;59.00
43991;DHT22;29654;50.784;20.604;2023-11-19T22:42:15;9.70;59.00
43991;DHT22;29654;50.784;20.604;2023-11-19T22:47:19;9.70;59.00
43991;DHT22;29654;50.784;20.604;2023-11-19T22:52:22;9.70;58.90
43991;DHT22;29654;50.784;20.604;2023-11-19T22:57:25;9.80;59.00
43991;DHT22;29654;50.784;20.604;2023-11-19T23:02:29;9.80;59.00
43991;DHT22;29654;50.784;20.604;2023-11-19T23:07:32;9.80;58.80
43991;DHT22;29654;50.784;20.604;2023-11-19T23:12:34;9.80;58.70
43991;DHT22;29654;50.784;20.604;2023-11-19T23:17:38;9.80;58.70
43991;DHT22;29654;50.784;20.604;2023-11-19T23:22:41;9.80;58.70
43991;DHT22;29654;50.784;20.604;2023-11-19T23:27:44;9.80;58.70
43991;DHT22;29654;50.784;20.604;2023-11-19T23:32:48;9.80;58.80
43991;DHT22;29654;50.784;20.604;2023-11-19T23:37:50;9.80;58.80
43991;DHT22;29654;50.784;20.604;2023-11-19T23:42:53;9.80;58.90
43991;DHT22;29654;50.784;20.604;2023-11-19T23:47:57;9.80;58.90
43991;DHT22;29654;50.784;20.604;2023-11-19T23:52:59;9.90;59.00
43991;DHT22;29654;50.784;20.604;2023-11-19T23:58:02;9.90;59.10
